sensor_id;sensor_type;location;lat;lon;timestamp;P1;durP1;ratioP1;P2;durP2;ratioP2
50757;SDS011;36732;47.980;11.652;2022-08-01T00:01:53;1.83;;;0.95;;
50757;SDS011;36732;47.980;11.652;2022-08-01T00:04:19;1.33;;;1.10;;
50757;SDS011;36732;47.980;11.652;2022-08-01T00:06:44;1.67;;;1.20;;
50757;SDS011;36732;47.980;11.652;2022-08-01T00:09:10;1.10;;;1.00;;
50757;SDS011;36732;47.980;11.652;2022-08-01T00:11:36;2.42;;;1.35;;
50757;SDS011;36732;47.980;11.652;2022-08-01T00:14:02;1.23;;;1.13;;
50757;SDS011;36732;47.980;11.652;2022-08-01T00:16:28;1.60;;;1.33;;
50757;SDS011;36732;47.980;11.652;2022-08-01T00:18:54;2.38;;;1.20;;
50757;SDS011;36732;47.980;11.652;2022-08-01T00:21:20;1.45;;;1.20;;
50757;SDS011;36732;47.980;11.652;2022-08-01T00:23:46;2.75;;;1.30;;
50757;SDS011;36732;47.980;11.652;2022-08-01T00:26:12;4.28;;;1.17;;
50757;SDS011;36732;47.980;11.652;2022-08-01T00:28:39;1.58;;;1.20;;
50757;SDS011;36732;47.980;11.652;2022-08-01T00:31:05;2.65;;;1.38;;
50757;SDS011;36732;47.980;11.652;2022-08-01T00:33:31;1.88;;;1.30;;
50757;SDS011;36732;47.980;11.652;2022-08-01T00:35:57;2.67;;;1.20;;
50757;SDS011;36732;47.980;11.652;2022-08-01T00:38:22;1.30;;;1.20;;
50757;SDS011;36732;47.980;11.652;2022-08-01T00:40:48;1.48;;;1.38;;
50757;SDS011;36732;47.980;11.652;2022-08-01T00:43:14;1.83;;;1.40;;
50757;SDS011;36732;47.980;11.652;2022-08-01T00:45:40;1.90;;;1.60;;
50757;SDS011;36732;47.980;11.652;2022-08-01T00:48:06;2.15;;;1.30;;
50757;SDS011;36732;47.980;11.652;2022-08-01T00:50:32;1.30;;;1.20;;
50757;SDS011;36732;47.980;11.652;2022-08-01T00:52:59;2.10;;;1.58;;
50757;SDS011;36732;47.980;11.652;2022-08-01T00:55:26;0.95;;;0.90;;
50757;SDS011;36732;47.980;11.652;2022-08-01T00:57:53;3.42;;;1.35;;
50757;SDS011;36732;47.980;11.652;2022-08-01T01:00:19;1.20;;;1.10;;
50757;SDS011;36732;47.980;11.652;2022-08-01T01:02:45;1.42;;;0.90;;
50757;SDS011;36732;47.980;11.652;2022-08-01T01:05:11;1.35;;;1.25;;
50757;SDS011;36732;47.980;11.652;2022-08-01T01:10:19;1.42;;;1.20;;
50757;SDS011;36732;47.980;11.652;2022-08-01T01:13:05;2.80;;;1.08;;
50757;SDS011;36732;47.980;11.652;2022-08-01T01:18:10;1.83;;;1.45;;
50757;SDS011;36732;47.980;11.652;2022-08-01T01:20:42;1.63;;;1.05;;
50757;SDS011;36732;47.980;11.652;2022-08-01T01:26:12;1.88;;;1.27;;
50757;SDS011;36732;47.980;11.652;2022-08-01T01:31:55;3.33;;;1.10;;
50757;SDS011;36732;47.980;11.652;2022-08-01T01:36:53;1.10;;;1.00;;
50757;SDS011;36732;47.980;11.652;2022-08-01T01:39:21;1.40;;;1.23;;
50757;SDS011;36732;47.980;11.652;2022-08-01T01:41:51;2.50;;;1.30;;
50757;SDS011;36732;47.980;11.652;2022-08-01T01:44:19;1.75;;;1.30;;
50757;SDS011;36732;47.980;11.652;2022-08-01T01:46:46;2.10;;;1.48;;
50757;SDS011;36732;47.980;11.652;2022-08-01T01:49:13;1.45;;;1.00;;
50757;SDS011;36732;47.980;11.652;2022-08-01T01:51:40;1.23;;;1.13;;
50757;SDS011;36732;47.980;11.652;2022-08-01T01:54:08;7.20;;;1.00;;
50757;SDS011;36732;47.980;11.652;2022-08-01T01:56:35;1.00;;;1.00;;
50757;SDS011;36732;47.980;11.652;2022-08-01T01:59:13;1.20;;;1.10;;
50757;SDS011;36732;47.980;11.652;2022-08-01T02:01:44;1.70;;;1.40;;
50757;SDS011;36732;47.980;11.652;2022-08-01T02:04:14;1.48;;;1.30;;
50757;SDS011;36732;47.980;11.652;2022-08-01T02:06:41;2.55;;;1.30;;
50757;SDS011;36732;47.980;11.652;2022-08-01T02:09:09;1.30;;;1.20;;
50757;SDS011;36732;47.980;11.652;2022-08-01T02:11:36;4.65;;;1.60;;
50757;SDS011;36732;47.980;11.652;2022-08-01T02:14:03;1.40;;;1.20;;
50757;SDS011;36732;47.980;11.652;2022-08-01T02:16:31;2.05;;;1.40;;
50757;SDS011;36732;47.980;11.652;2022-08-01T02:19:00;0.98;;;0.98;;
50757;SDS011;36732;47.980;11.652;2022-08-01T02:21:27;2.10;;;1.50;;
50757;SDS011;36732;47.980;11.652;2022-08-01T02:24:01;2.38;;;1.17;;
50757;SDS011;36732;47.980;11.652;2022-08-01T02:26:34;1.23;;;1.08;;
50757;SDS011;36732;47.980;11.652;2022-08-01T02:29:13;2.10;;;1.20;;
50757;SDS011;36732;47.980;11.652;2022-08-01T02:31:46;1.83;;;1.20;;
50757;SDS011;36732;47.980;11.652;2022-08-01T02:34:15;2.03;;;1.13;;
50757;SDS011;36732;47.980;11.652;2022-08-01T02:36:43;3.10;;;1.10;;
50757;SDS011;36732;47.980;11.652;2022-08-01T02:39:12;3.08;;;1.27;;
50757;SDS011;36732;47.980;11.652;2022-08-01T02:41:42;2.92;;;1.33;;
50757;SDS011;36732;47.980;11.652;2022-08-01T02:44:15;1.42;;;1.02;;
50757;SDS011;36732;47.980;11.652;2022-08-01T02:46:51;1.10;;;1.00;;
50757;SDS011;36732;47.980;11.652;2022-08-01T02:49:22;1.30;;;1.20;;
50757;SDS011;36732;47.980;11.652;2022-08-01T02:51:51;1.00;;;0.90;;
50757;SDS011;36732;47.980;11.652;2022-08-01T02:54:19;2.50;;;1.50;;
50757;SDS011;36732;47.980;11.652;2022-08-01T02:56:46;1.30;;;1.20;;
50757;SDS011;36732;47.980;11.652;2022-08-01T02:59:15;1.40;;;1.30;;
50757;SDS011;36732;47.980;11.652;2022-08-01T03:01:43;1.55;;;1.23;;
50757;SDS011;36732;47.980;11.652;2022-08-01T03:04:11;1.63;;;1.20;;
50757;SDS011;36732;47.980;11.652;2022-08-01T03:06:39;1.63;;;1.17;;
50757;SDS011;36732;47.980;11.652;2022-08-01T03:09:06;1.35;;;1.20;;
50757;SDS011;36732;47.980;11.652;2022-08-01T03:11:33;2.00;;;1.23;;
50757;SDS011;36732;47.980;11.652;2022-08-01T03:14:04;1.42;;;1.30;;
50757;SDS011;36732;47.980;11.652;2022-08-01T03:16:32;1.30;;;1.15;;
50757;SDS011;36732;47.980;11.652;2022-08-01T03:19:00;4.85;;;1.38;;
50757;SDS011;36732;47.980;11.652;2022-08-01T03:21:28;1.33;;;1.23;;
50757;SDS011;36732;47.980;11.652;2022-08-01T03:23:55;2.00;;;1.35;;
50757;SDS011;36732;47.980;11.652;2022-08-01T03:26:26;1.30;;;1.20;;
50757;SDS011;36732;47.980;11.652;2022-08-01T03:28:55;1.40;;;1.17;;
50757;SDS011;36732;47.980;11.652;2022-08-01T03:31:25;1.90;;;1.30;;
50757;SDS011;36732;47.980;11.652;2022-08-01T03:33:51;2.53;;;1.35;;
50757;SDS011;36732;47.980;11.652;2022-08-01T03:36:18;5.20;;;1.85;;
50757;SDS011;36732;47.980;11.652;2022-08-01T03:38:55;3.13;;;1.10;;
50757;SDS011;36732;47.980;11.652;2022-08-01T03:41:25;1.13;;;1.02;;
50757;SDS011;36732;47.980;11.652;2022-08-01T03:43:56;2.78;;;1.38;;
50757;SDS011;36732;47.980;11.652;2022-08-01T03:46:28;1.75;;;1.30;;
50757;SDS011;36732;47.980;11.652;2022-08-01T03:49:03;1.65;;;1.30;;
50757;SDS011;36732;47.980;11.652;2022-08-01T03:51:37;1.30;;;1.20;;
50757;SDS011;36732;47.980;11.652;2022-08-01T03:54:03;1.50;;;1.40;;
50757;SDS011;36732;47.980;11.652;2022-08-01T03:56:30;1.95;;;1.30;;
50757;SDS011;36732;47.980;11.652;2022-08-01T03:58:58;1.67;;;1.20;;
50757;SDS011;36732;47.980;11.652;2022-08-01T04:01:25;3.72;;;1.42;;
50757;SDS011;36732;47.980;11.652;2022-08-01T04:03:53;1.50;;;1.40;;
50757;SDS011;36732;47.980;11.652;2022-08-01T04:06:19;1.38;;;1.08;;
50757;SDS011;36732;47.980;11.652;2022-08-01T04:08:45;2.28;;;1.58;;
50757;SDS011;36732;47.980;11.652;2022-08-01T04:11:20;1.33;;;1.23;;
50757;SDS011;36732;47.980;11.652;2022-08-01T04:13:48;1.58;;;1.30;;
50757;SDS011;36732;47.980;11.652;2022-08-01T04:16:16;1.30;;;1.20;;
50757;SDS011;36732;47.980;11.652;2022-08-01T04:18:42;1.48;;;1.20;;
50757;SDS011;36732;47.980;11.652;2022-08-01T04:21:07;1.20;;;1.10;;
50757;SDS011;36732;47.980;11.652;2022-08-01T04:23:33;1.65;;;1.40;;
50757;SDS011;36732;47.980;11.652;2022-08-01T04:26:01;3.22;;;1.42;;
50757;SDS011;36732;47.980;11.652;2022-08-01T04:28:30;2.33;;;1.10;;
50757;SDS011;36732;47.980;11.652;2022-08-01T04:31:00;1.23;;;1.13;;
50757;SDS011;36732;47.980;11.652;2022-08-01T04:33:26;3.97;;;1.50;;
50757;SDS011;36732;47.980;11.652;2022-08-01T04:35:54;1.48;;;1.38;;
50757;SDS011;36732;47.980;11.652;2022-08-01T04:38:25;1.45;;;1.35;;
50757;SDS011;36732;47.980;11.652;2022-08-01T04:40:52;1.40;;;1.30;;
50757;SDS011;36732;47.980;11.652;2022-08-01T04:43:19;1.52;;;1.40;;
50757;SDS011;36732;47.980;11.652;2022-08-01T04:45:46;1.63;;;1.40;;
50757;SDS011;36732;47.980;11.652;2022-08-01T04:48:12;1.45;;;1.30;;
50757;SDS011;36732;47.980;11.652;2022-08-01T04:50:40;3.75;;;1.30;;
50757;SDS011;36732;47.980;11.652;2022-08-01T04:53:12;1.50;;;1.30;;
50757;SDS011;36732;47.980;11.652;2022-08-01T04:55:43;1.75;;;1.13;;
50757;SDS011;36732;47.980;11.652;2022-08-01T04:58:10;1.58;;;1.20;;
50757;SDS011;36732;47.980;11.652;2022-08-01T05:00:37;2.42;;;1.20;;
50757;SDS011;36732;47.980;11.652;2022-08-01T05:03:03;2.05;;;1.27;;
50757;SDS011;36732;47.980;11.652;2022-08-01T05:05:28;4.25;;;1.58;;
50757;SDS011;36732;47.980;11.652;2022-08-01T05:07:55;3.60;;;1.80;;
50757;SDS011;36732;47.980;11.652;2022-08-01T05:10:21;4.50;;;1.30;;
50757;SDS011;36732;47.980;11.652;2022-08-01T05:12:47;1.23;;;1.13;;
50757;SDS011;36732;47.980;11.652;2022-08-01T05:15:13;1.60;;;1.50;;
50757;SDS011;36732;47.980;11.652;2022-08-01T05:17:38;1.35;;;1.25;;
50757;SDS011;36732;47.980;11.652;2022-08-01T05:20:04;1.42;;;1.30;;
50757;SDS011;36732;47.980;11.652;2022-08-01T05:22:33;1.83;;;1.10;;
50757;SDS011;36732;47.980;11.652;2022-08-01T05:24:59;4.75;;;1.63;;
50757;SDS011;36732;47.980;11.652;2022-08-01T05:27:25;2.97;;;1.40;;
50757;SDS011;36732;47.980;11.652;2022-08-01T05:29:51;2.67;;;1.33;;
50757;SDS011;36732;47.980;11.652;2022-08-01T05:32:16;1.35;;;1.17;;
50757;SDS011;36732;47.980;11.652;2022-08-01T05:34:42;2.20;;;1.50;;
50757;SDS011;36732;47.980;11.652;2022-08-01T05:37:08;1.50;;;1.40;;
50757;SDS011;36732;47.980;11.652;2022-08-01T05:39:34;1.73;;;1.33;;
50757;SDS011;36732;47.980;11.652;2022-08-01T05:42:00;1.50;;;1.27;;
50757;SDS011;36732;47.980;11.652;2022-08-01T05:44:26;1.75;;;1.35;;
50757;SDS011;36732;47.980;11.652;2022-08-01T05:46:51;1.75;;;1.48;;
50757;SDS011;36732;47.980;11.652;2022-08-01T05:49:18;2.33;;;1.35;;
50757;SDS011;36732;47.980;11.652;2022-08-01T05:51:44;3.10;;;1.20;;
50757;SDS011;36732;47.980;11.652;2022-08-01T05:54:10;1.73;;;1.40;;
50757;SDS011;36732;47.980;11.652;2022-08-01T05:56:35;2.42;;;1.52;;
50757;SDS011;36732;47.980;11.652;2022-08-01T05:59:01;1.50;;;1.05;;
50757;SDS011;36732;47.980;11.652;2022-08-01T06:01:27;4.15;;;1.42;;
50757;SDS011;36732;47.980;11.652;2022-08-01T06:03:53;2.47;;;1.50;;
50757;SDS011;36732;47.980;11.652;2022-08-01T06:06:19;1.40;;;1.30;;
50757;SDS011;36732;47.980;11.652;2022-08-01T06:08:46;2.53;;;1.50;;
50757;SDS011;36732;47.980;11.652;2022-08-01T06:11:12;1.52;;;1.40;;
50757;SDS011;36732;47.980;11.652;2022-08-01T06:13:37;1.27;;;1.17;;
50757;SDS011;36732;47.980;11.652;2022-08-01T06:16:03;2.83;;;1.80;;
50757;SDS011;36732;47.980;11.652;2022-08-01T06:18:29;1.52;;;1.42;;
50757;SDS011;36732;47.980;11.652;2022-08-01T06:20:55;2.00;;;1.63;;
50757;SDS011;36732;47.980;11.652;2022-08-01T06:23:21;1.40;;;1.27;;
50757;SDS011;36732;47.980;11.652;2022-08-01T06:25:47;1.75;;;1.63;;
50757;SDS011;36732;47.980;11.652;2022-08-01T06:28:13;2.58;;;1.80;;
50757;SDS011;36732;47.980;11.652;2022-08-01T06:30:39;3.10;;;1.50;;
50757;SDS011;36732;47.980;11.652;2022-08-01T06:33:05;3.78;;;1.30;;
50757;SDS011;36732;47.980;11.652;2022-08-01T06:35:30;2.22;;;1.40;;
50757;SDS011;36732;47.980;11.652;2022-08-01T06:37:56;1.90;;;1.50;;
50757;SDS011;36732;47.980;11.652;2022-08-01T06:40:22;1.75;;;1.40;;
50757;SDS011;36732;47.980;11.652;2022-08-01T06:42:48;2.60;;;1.35;;
50757;SDS011;36732;47.980;11.652;2022-08-01T06:45:15;1.52;;;1.42;;
50757;SDS011;36732;47.980;11.652;2022-08-01T06:47:42;1.25;;;1.15;;
50757;SDS011;36732;47.980;11.652;2022-08-01T06:50:09;1.77;;;1.30;;
50757;SDS011;36732;47.980;11.652;2022-08-01T06:52:36;2.50;;;1.67;;
50757;SDS011;36732;47.980;11.652;2022-08-01T06:55:02;1.85;;;1.30;;
50757;SDS011;36732;47.980;11.652;2022-08-01T06:57:30;2.63;;;1.63;;
50757;SDS011;36732;47.980;11.652;2022-08-01T06:59:55;1.70;;;1.45;;
50757;SDS011;36732;47.980;11.652;2022-08-01T07:02:21;2.50;;;1.52;;
50757;SDS011;36732;47.980;11.652;2022-08-01T07:04:48;1.80;;;1.48;;
50757;SDS011;36732;47.980;11.652;2022-08-01T07:07:13;2.72;;;1.85;;
50757;SDS011;36732;47.980;11.652;2022-08-01T07:09:39;1.70;;;1.45;;
50757;SDS011;36732;47.980;11.652;2022-08-01T07:12:08;1.67;;;1.58;;
50757;SDS011;36732;47.980;11.652;2022-08-01T07:14:34;1.85;;;1.50;;
50757;SDS011;36732;47.980;11.652;2022-08-01T07:17:00;1.52;;;1.42;;
50757;SDS011;36732;47.980;11.652;2022-08-01T07:19:25;2.53;;;1.98;;
50757;SDS011;36732;47.980;11.652;2022-08-01T07:21:52;1.63;;;1.52;;
50757;SDS011;36732;47.980;11.652;2022-08-01T07:24:18;2.83;;;1.92;;
50757;SDS011;36732;47.980;11.652;2022-08-01T07:26:44;1.60;;;1.50;;
50757;SDS011;36732;47.980;11.652;2022-08-01T07:29:12;2.08;;;1.73;;
50757;SDS011;36732;47.980;11.652;2022-08-01T07:31:38;9.63;;;1.50;;
50757;SDS011;36732;47.980;11.652;2022-08-01T07:34:04;1.35;;;1.23;;
50757;SDS011;36732;47.980;11.652;2022-08-01T07:36:29;2.00;;;1.55;;
50757;SDS011;36732;47.980;11.652;2022-08-01T07:38:55;3.03;;;1.70;;
50757;SDS011;36732;47.980;11.652;2022-08-01T07:41:21;1.50;;;1.40;;
50757;SDS011;36732;47.980;11.652;2022-08-01T07:43:48;3.88;;;1.67;;
50757;SDS011;36732;47.980;11.652;2022-08-01T07:46:14;5.07;;;1.83;;
50757;SDS011;36732;47.980;11.652;2022-08-01T07:48:40;3.80;;;1.40;;
50757;SDS011;36732;47.980;11.652;2022-08-01T07:51:06;2.92;;;1.50;;
50757;SDS011;36732;47.980;11.652;2022-08-01T07:53:33;2.13;;;1.50;;
50757;SDS011;36732;47.980;11.652;2022-08-01T07:55:59;1.63;;;1.35;;
50757;SDS011;36732;47.980;11.652;2022-08-01T07:58:27;1.98;;;1.80;;
50757;SDS011;36732;47.980;11.652;2022-08-01T08:00:53;1.48;;;1.38;;
50757;SDS011;36732;47.980;11.652;2022-08-01T08:03:18;3.10;;;1.70;;
50757;SDS011;36732;47.980;11.652;2022-08-01T08:05:44;2.38;;;1.65;;
50757;SDS011;36732;47.980;11.652;2022-08-01T08:08:10;2.15;;;1.65;;
50757;SDS011;36732;47.980;11.652;2022-08-01T08:10:36;2.53;;;1.90;;
50757;SDS011;36732;47.980;11.652;2022-08-01T08:13:02;1.55;;;1.45;;
50757;SDS011;36732;47.980;11.652;2022-08-01T08:15:28;1.88;;;1.52;;
50757;SDS011;36732;47.980;11.652;2022-08-01T08:17:54;4.35;;;1.63;;
50757;SDS011;36732;47.980;11.652;2022-08-01T08:20:20;1.90;;;1.60;;
50757;SDS011;36732;47.980;11.652;2022-08-01T08:22:54;1.77;;;1.60;;
50757;SDS011;36732;47.980;11.652;2022-08-01T08:25:22;1.85;;;1.70;;
50757;SDS011;36732;47.980;11.652;2022-08-01T08:27:48;1.77;;;1.63;;
50757;SDS011;36732;47.980;11.652;2022-08-01T08:30:14;1.48;;;1.38;;
50757;SDS011;36732;47.980;11.652;2022-08-01T08:32:40;1.63;;;1.52;;
50757;SDS011;36732;47.980;11.652;2022-08-01T08:35:06;1.90;;;1.67;;
50757;SDS011;36732;47.980;11.652;2022-08-01T08:37:36;2.78;;;1.83;;
50757;SDS011;36732;47.980;11.652;2022-08-01T08:40:03;2.00;;;1.60;;
50757;SDS011;36732;47.980;11.652;2022-08-01T08:42:31;2.33;;;2.10;;
50757;SDS011;36732;47.980;11.652;2022-08-01T08:44:56;1.73;;;1.58;;
50757;SDS011;36732;47.980;11.652;2022-08-01T08:47:22;2.92;;;1.50;;
50757;SDS011;36732;47.980;11.652;2022-08-01T08:49:50;3.17;;;1.80;;
50757;SDS011;36732;47.980;11.652;2022-08-01T08:52:19;1.80;;;1.58;;
50757;SDS011;36732;47.980;11.652;2022-08-01T08:54:46;1.98;;;1.77;;
50757;SDS011;36732;47.980;11.652;2022-08-01T08:57:13;1.90;;;1.80;;
50757;SDS011;36732;47.980;11.652;2022-08-01T08:59:44;2.72;;;2.03;;
50757;SDS011;36732;47.980;11.652;2022-08-01T09:02:10;3.15;;;1.83;;
50757;SDS011;36732;47.980;11.652;2022-08-01T09:04:37;2.95;;;1.60;;
50757;SDS011;36732;47.980;11.652;2022-08-01T09:07:05;1.50;;;1.40;;
50757;SDS011;36732;47.980;11.652;2022-08-01T09:09:32;1.70;;;1.60;;
50757;SDS011;36732;47.980;11.652;2022-08-01T09:11:58;3.03;;;1.83;;
50757;SDS011;36732;47.980;11.652;2022-08-01T09:14:24;2.72;;;1.60;;
50757;SDS011;36732;47.980;11.652;2022-08-01T09:17:01;2.00;;;1.80;;
50757;SDS011;36732;47.980;11.652;2022-08-01T09:19:37;4.60;;;1.83;;
50757;SDS011;36732;47.980;11.652;2022-08-01T09:22:14;3.60;;;1.45;;
50757;SDS011;36732;47.980;11.652;2022-08-01T09:24:59;1.80;;;1.38;;
50757;SDS011;36732;47.980;11.652;2022-08-01T09:27:38;1.77;;;1.50;;
50757;SDS011;36732;47.980;11.652;2022-08-01T09:30:08;1.70;;;1.45;;
50757;SDS011;36732;47.980;11.652;2022-08-01T09:32:52;1.83;;;1.52;;
50757;SDS011;36732;47.980;11.652;2022-08-01T09:37:51;2.13;;;1.33;;
50757;SDS011;36732;47.980;11.652;2022-08-01T09:43:26;2.10;;;1.50;;
50757;SDS011;36732;47.980;11.652;2022-08-01T09:45:54;2.65;;;1.48;;
50757;SDS011;36732;47.980;11.652;2022-08-01T09:48:21;2.40;;;1.55;;
50757;SDS011;36732;47.980;11.652;2022-08-01T09:50:48;1.42;;;1.20;;
50757;SDS011;36732;47.980;11.652;2022-08-01T09:53:16;2.22;;;1.50;;
50757;SDS011;36732;47.980;11.652;2022-08-01T09:55:43;1.63;;;1.27;;
50757;SDS011;36732;47.980;11.652;2022-08-01T09:58:09;1.58;;;1.30;;
50757;SDS011;36732;47.980;11.652;2022-08-01T10:00:36;1.42;;;1.10;;
50757;SDS011;36732;47.980;11.652;2022-08-01T10:03:22;1.80;;;1.38;;
50757;SDS011;36732;47.980;11.652;2022-08-01T10:05:50;1.42;;;1.10;;
50757;SDS011;36732;47.980;11.652;2022-08-01T10:08:18;1.50;;;1.05;;
50757;SDS011;36732;47.980;11.652;2022-08-01T10:11:05;2.78;;;1.20;;
50757;SDS011;36732;47.980;11.652;2022-08-01T10:13:38;2.95;;;1.55;;
50757;SDS011;36732;47.980;11.652;2022-08-01T10:16:05;2.30;;;1.27;;
50757;SDS011;36732;47.980;11.652;2022-08-01T10:18:32;1.55;;;1.30;;
50757;SDS011;36732;47.980;11.652;2022-08-01T10:21:01;3.80;;;1.40;;
50757;SDS011;36732;47.980;11.652;2022-08-01T10:23:30;4.50;;;1.27;;
50757;SDS011;36732;47.980;11.652;2022-08-01T10:26:00;1.73;;;1.20;;
50757;SDS011;36732;47.980;11.652;2022-08-01T10:28:26;2.13;;;1.17;;
50757;SDS011;36732;47.980;11.652;2022-08-01T10:30:56;1.40;;;1.30;;
50757;SDS011;36732;47.980;11.652;2022-08-01T10:33:24;1.30;;;1.10;;
50757;SDS011;36732;47.980;11.652;2022-08-01T10:35:50;4.00;;;1.15;;
50757;SDS011;36732;47.980;11.652;2022-08-01T10:38:17;1.60;;;1.00;;
50757;SDS011;36732;47.980;11.652;2022-08-01T10:40:43;0.80;;;0.75;;
50757;SDS011;36732;47.980;11.652;2022-08-01T10:43:10;1.88;;;1.48;;
50757;SDS011;36732;47.980;11.652;2022-08-01T10:45:37;1.25;;;1.10;;
50757;SDS011;36732;47.980;11.652;2022-08-01T10:50:49;1.42;;;1.30;;
50757;SDS011;36732;47.980;11.652;2022-08-01T10:53:23;3.70;;;1.20;;
50757;SDS011;36732;47.980;11.652;2022-08-01T11:06:42;2.35;;;0.88;;
50757;SDS011;36732;47.980;11.652;2022-08-01T11:09:20;2.80;;;0.82;;
50757;SDS011;36732;47.980;11.652;2022-08-01T11:12:09;1.00;;;0.90;;
50757;SDS011;36732;47.980;11.652;2022-08-01T11:17:35;1.70;;;0.98;;
50757;SDS011;36732;47.980;11.652;2022-08-01T11:30:44;1.63;;;1.00;;
50757;SDS011;36732;47.980;11.652;2022-08-01T11:38:36;1.38;;;1.00;;
50757;SDS011;36732;47.980;11.652;2022-08-01T11:41:12;1.15;;;1.05;;
50757;SDS011;36732;47.980;11.652;2022-08-01T11:49:29;2.33;;;0.80;;
50757;SDS011;36732;47.980;11.652;2022-08-01T11:54:39;1.70;;;1.08;;
50757;SDS011;36732;47.980;11.652;2022-08-01T11:59:47;1.80;;;1.10;;
50757;SDS011;36732;47.980;11.652;2022-08-01T12:04:52;1.75;;;1.20;;
50757;SDS011;36732;47.980;11.652;2022-08-01T12:07:31;1.38;;;0.98;;
50757;SDS011;36732;47.980;11.652;2022-08-01T12:12:31;0.88;;;0.80;;
50757;SDS011;36732;47.980;11.652;2022-08-01T12:14:59;2.13;;;1.00;;
50757;SDS011;36732;47.980;11.652;2022-08-01T12:17:33;1.88;;;0.90;;
50757;SDS011;36732;47.980;11.652;2022-08-01T12:20:08;2.25;;;1.10;;
50757;SDS011;36732;47.980;11.652;2022-08-01T12:22:37;2.47;;;1.23;;
50757;SDS011;36732;47.980;11.652;2022-08-01T12:25:06;3.20;;;1.25;;
50757;SDS011;36732;47.980;11.652;2022-08-01T12:27:36;2.30;;;1.20;;
50757;SDS011;36732;47.980;11.652;2022-08-01T12:30:06;1.88;;;1.13;;
50757;SDS011;36732;47.980;11.652;2022-08-01T12:32:36;1.40;;;0.98;;
50757;SDS011;36732;47.980;11.652;2022-08-01T12:35:05;3.17;;;1.08;;
50757;SDS011;36732;47.980;11.652;2022-08-01T12:37:50;1.45;;;1.15;;
50757;SDS011;36732;47.980;11.652;2022-08-01T12:42:49;1.75;;;0.90;;
50757;SDS011;36732;47.980;11.652;2022-08-01T12:45:18;2.38;;;0.77;;
50757;SDS011;36732;47.980;11.652;2022-08-01T12:47:48;2.75;;;1.10;;
50757;SDS011;36732;47.980;11.652;2022-08-01T12:50:17;1.35;;;0.90;;
50757;SDS011;36732;47.980;11.652;2022-08-01T12:52:45;1.67;;;0.98;;
50757;SDS011;36732;47.980;11.652;2022-08-01T12:55:20;1.88;;;1.13;;
50757;SDS011;36732;47.980;11.652;2022-08-01T12:58:02;1.17;;;0.98;;
50757;SDS011;36732;47.980;11.652;2022-08-01T13:00:33;1.10;;;0.85;;
50757;SDS011;36732;47.980;11.652;2022-08-01T13:03:21;1.75;;;1.13;;
50757;SDS011;36732;47.980;11.652;2022-08-01T13:10:50;1.48;;;1.02;;
50757;SDS011;36732;47.980;11.652;2022-08-01T13:13:34;1.10;;;1.00;;
50757;SDS011;36732;47.980;11.652;2022-08-01T13:16:12;2.00;;;1.15;;
50757;SDS011;36732;47.980;11.652;2022-08-01T13:18:40;1.42;;;0.95;;
50757;SDS011;36732;47.980;11.652;2022-08-01T13:23:41;1.33;;;0.80;;
50757;SDS011;36732;47.980;11.652;2022-08-01T13:29:13;1.27;;;1.00;;
50757;SDS011;36732;47.980;11.652;2022-08-01T13:31:47;1.20;;;0.73;;
50757;SDS011;36732;47.980;11.652;2022-08-01T13:34:14;1.67;;;0.80;;
50757;SDS011;36732;47.980;11.652;2022-08-01T13:36:40;0.80;;;0.73;;
50757;SDS011;36732;47.980;11.652;2022-08-01T13:39:07;2.05;;;0.90;;
50757;SDS011;36732;47.980;11.652;2022-08-01T13:41:51;1.00;;;0.88;;
50757;SDS011;36732;47.980;11.652;2022-08-01T13:44:17;1.48;;;0.90;;
50757;SDS011;36732;47.980;11.652;2022-08-01T13:46:43;1.52;;;0.90;;
50757;SDS011;36732;47.980;11.652;2022-08-01T13:49:10;3.35;;;0.90;;
50757;SDS011;36732;47.980;11.652;2022-08-01T13:51:36;3.55;;;1.23;;
50757;SDS011;36732;47.980;11.652;2022-08-01T13:54:04;1.52;;;0.90;;
50757;SDS011;36732;47.980;11.652;2022-08-01T13:56:30;0.85;;;0.82;;
50757;SDS011;36732;47.980;11.652;2022-08-01T13:58:57;1.58;;;1.17;;
50757;SDS011;36732;47.980;11.652;2022-08-01T14:01:23;1.35;;;1.08;;
50757;SDS011;36732;47.980;11.652;2022-08-01T14:03:50;2.35;;;0.82;;
50757;SDS011;36732;47.980;11.652;2022-08-01T14:06:16;0.88;;;0.85;;
50757;SDS011;36732;47.980;11.652;2022-08-01T14:08:45;0.80;;;0.80;;
50757;SDS011;36732;47.980;11.652;2022-08-01T14:11:11;1.25;;;0.80;;
50757;SDS011;36732;47.980;11.652;2022-08-01T14:13:37;1.15;;;0.80;;
50757;SDS011;36732;47.980;11.652;2022-08-01T14:16:04;2.47;;;0.95;;
50757;SDS011;36732;47.980;11.652;2022-08-01T14:18:31;0.70;;;0.60;;
50757;SDS011;36732;47.980;11.652;2022-08-01T14:20:57;3.75;;;0.70;;
50757;SDS011;36732;47.980;11.652;2022-08-01T14:23:22;2.88;;;0.70;;
50757;SDS011;36732;47.980;11.652;2022-08-01T14:25:48;1.40;;;0.80;;
50757;SDS011;36732;47.980;11.652;2022-08-01T14:28:14;1.25;;;0.93;;
50757;SDS011;36732;47.980;11.652;2022-08-01T14:30:40;1.75;;;0.70;;
50757;SDS011;36732;47.980;11.652;2022-08-01T14:33:07;1.55;;;0.90;;
50757;SDS011;36732;47.980;11.652;2022-08-01T14:35:36;3.53;;;0.68;;
50757;SDS011;36732;47.980;11.652;2022-08-01T14:38:02;2.20;;;0.90;;
50757;SDS011;36732;47.980;11.652;2022-08-01T14:40:28;2.40;;;0.90;;
50757;SDS011;36732;47.980;11.652;2022-08-01T14:42:54;3.70;;;1.05;;
50757;SDS011;36732;47.980;11.652;2022-08-01T14:45:20;5.88;;;0.80;;
50757;SDS011;36732;47.980;11.652;2022-08-01T14:47:46;1.10;;;0.73;;
50757;SDS011;36732;47.980;11.652;2022-08-01T14:50:12;3.28;;;1.02;;
50757;SDS011;36732;47.980;11.652;2022-08-01T14:52:39;1.15;;;0.85;;
50757;SDS011;36732;47.980;11.652;2022-08-01T14:55:07;3.30;;;0.77;;
50757;SDS011;36732;47.980;11.652;2022-08-01T14:57:35;3.70;;;0.70;;
50757;SDS011;36732;47.980;11.652;2022-08-01T15:00:03;3.42;;;0.77;;
50757;SDS011;36732;47.980;11.652;2022-08-01T15:02:35;0.82;;;0.60;;
50757;SDS011;36732;47.980;11.652;2022-08-01T15:05:00;1.00;;;0.57;;
50757;SDS011;36732;47.980;11.652;2022-08-01T15:07:26;0.40;;;0.40;;
50757;SDS011;36732;47.980;11.652;2022-08-01T15:09:52;3.38;;;0.73;;
50757;SDS011;36732;47.980;11.652;2022-08-01T15:12:17;1.52;;;0.57;;
50757;SDS011;36732;47.980;11.652;2022-08-01T15:14:43;0.40;;;0.40;;
50757;SDS011;36732;47.980;11.652;2022-08-01T15:19:56;0.68;;;0.68;;
50757;SDS011;36732;47.980;11.652;2022-08-01T15:22:24;2.60;;;1.00;;
50757;SDS011;36732;47.980;11.652;2022-08-01T15:24:51;2.88;;;1.05;;
50757;SDS011;36732;47.980;11.652;2022-08-01T15:27:19;2.47;;;1.40;;
50757;SDS011;36732;47.980;11.652;2022-08-01T15:29:45;2.03;;;1.30;;
50757;SDS011;36732;47.980;11.652;2022-08-01T15:32:12;2.03;;;0.90;;
50757;SDS011;36732;47.980;11.652;2022-08-01T15:34:39;1.50;;;1.00;;
50757;SDS011;36732;47.980;11.652;2022-08-01T15:37:06;2.88;;;1.00;;
50757;SDS011;36732;47.980;11.652;2022-08-01T15:39:32;0.70;;;0.70;;
50757;SDS011;36732;47.980;11.652;2022-08-01T15:41:59;1.70;;;1.05;;
50757;SDS011;36732;47.980;11.652;2022-08-01T15:44:30;2.60;;;1.10;;
50757;SDS011;36732;47.980;11.652;2022-08-01T15:46:58;1.25;;;0.98;;
50757;SDS011;36732;47.980;11.652;2022-08-01T15:49:25;2.08;;;1.23;;
50757;SDS011;36732;47.980;11.652;2022-08-01T15:51:52;2.35;;;0.90;;
50757;SDS011;36732;47.980;11.652;2022-08-01T15:54:23;1.48;;;0.85;;
50757;SDS011;36732;47.980;11.652;2022-08-01T15:56:49;6.40;;;2.20;;
50757;SDS011;36732;47.980;11.652;2022-08-01T15:59:15;2.25;;;1.27;;
50757;SDS011;36732;47.980;11.652;2022-08-01T16:01:41;3.10;;;0.93;;
50757;SDS011;36732;47.980;11.652;2022-08-01T16:04:07;2.10;;;1.00;;